sensor_id;sensor_type;location;lat;lon;timestamp;P1;durP1;ratioP1;P2;durP2;ratioP2
70588;SDS011;58152;49.202;18.744;2023-03-01T00:10:01;40.30;;;21.38;;
70588;SDS011;58152;49.202;18.744;2023-03-01T00:12:36;42.70;;;23.30;;
70588;SDS011;58152;49.202;18.744;2023-03-01T00:15:11;42.15;;;24.15;;
70588;SDS011;58152;49.202;18.744;2023-03-01T00:17:37;45.83;;;26.23;;
70588;SDS011;58152;49.202;18.744;2023-03-01T00:20:03;48.97;;;27.80;;
70588;SDS011;58152;49.202;18.744;2023-03-01T00:22:35;58.70;;;31.45;;
70588;SDS011;58152;49.202;18.744;2023-03-01T00:25:02;48.63;;;28.13;;
70588;SDS011;58152;49.202;18.744;2023-03-01T00:27:34;45.08;;;25.50;;
70588;SDS011;58152;49.202;18.744;2023-03-01T00:30:03;40.28;;;24.55;;
70588;SDS011;58152;49.202;18.744;2023-03-01T00:32:30;49.72;;;25.40;;
70588;SDS011;58152;49.202;18.744;2023-03-01T00:34:57;43.67;;;25.33;;
70588;SDS011;58152;49.202;18.744;2023-03-01T00:37:41;43.58;;;25.77;;
70588;SDS011;58152;49.202;18.744;2023-03-01T00:43:45;43.40;;;25.73;;
70588;SDS011;58152;49.202;18.744;2023-03-01T00:47:02;43.00;;;26.13;;
70588;SDS011;58152;49.202;18.744;2023-03-01T00:49:41;42.45;;;23.25;;
70588;SDS011;58152;49.202;18.744;2023-03-01T00:52:35;42.63;;;23.92;;
70588;SDS011;58152;49.202;18.744;2023-03-01T00:55:01;48.00;;;26.15;;
70588;SDS011;58152;49.202;18.744;2023-03-01T00:57:31;51.70;;;26.50;;
70588;SDS011;58152;49.202;18.744;2023-03-01T01:06:34;48.47;;;25.27;;
70588;SDS011;58152;49.202;18.744;2023-03-01T01:09:06;48.97;;;26.02;;
70588;SDS011;58152;49.202;18.744;2023-03-01T01:11:47;52.88;;;27.98;;
70588;SDS011;58152;49.202;18.744;2023-03-01T01:14:16;56.60;;;28.75;;
70588;SDS011;58152;49.202;18.744;2023-03-01T01:17:35;56.65;;;26.20;;
70588;SDS011;58152;49.202;18.744;2023-03-01T01:20:03;48.38;;;25.50;;
70588;SDS011;58152;49.202;18.744;2023-03-01T01:22:30;45.67;;;24.95;;
70588;SDS011;58152;49.202;18.744;2023-03-01T01:24:55;42.47;;;23.35;;
70588;SDS011;58152;49.202;18.744;2023-03-01T01:27:24;39.75;;;22.15;;
70588;SDS011;58152;49.202;18.744;2023-03-01T01:30:31;41.47;;;23.30;;
70588;SDS011;58152;49.202;18.744;2023-03-01T01:32:59;42.00;;;22.38;;
70588;SDS011;58152;49.202;18.744;2023-03-01T01:35:30;44.85;;;23.75;;
70588;SDS011;58152;49.202;18.744;2023-03-01T01:42:20;39.90;;;23.33;;
70588;SDS011;58152;49.202;18.744;2023-03-01T01:48:06;39.03;;;21.95;;
70588;SDS011;58152;49.202;18.744;2023-03-01T01:50:41;44.95;;;22.50;;
70588;SDS011;58152;49.202;18.744;2023-03-01T01:53:14;42.10;;;21.95;;
70588;SDS011;58152;49.202;18.744;2023-03-01T01:55:54;39.67;;;22.25;;
70588;SDS011;58152;49.202;18.744;2023-03-01T01:58:23;39.40;;;21.52;;
70588;SDS011;58152;49.202;18.744;2023-03-01T02:00:50;41.30;;;22.85;;
70588;SDS011;58152;49.202;18.744;2023-03-01T02:03:18;39.53;;;22.75;;
70588;SDS011;58152;49.202;18.744;2023-03-01T02:05:51;39.20;;;23.10;;
70588;SDS011;58152;49.202;18.744;2023-03-01T02:08:39;40.75;;;22.05;;
70588;SDS011;58152;49.202;18.744;2023-03-01T02:11:17;39.67;;;22.20;;
70588;SDS011;58152;49.202;18.744;2023-03-01T02:14:03;39.65;;;23.85;;
70588;SDS011;58152;49.202;18.744;2023-03-01T02:17:10;46.00;;;23.80;;
70588;SDS011;58152;49.202;18.744;2023-03-01T02:22:59;46.22;;;24.15;;
70588;SDS011;58152;49.202;18.744;2023-03-01T02:25:52;38.88;;;22.02;;
70588;SDS011;58152;49.202;18.744;2023-03-01T02:28:36;38.13;;;22.73;;
70588;SDS011;58152;49.202;18.744;2023-03-01T02:34:02;37.88;;;21.00;;
70588;SDS011;58152;49.202;18.744;2023-03-01T02:36:37;39.35;;;22.27;;
70588;SDS011;58152;49.202;18.744;2023-03-01T02:39:06;41.03;;;23.25;;
70588;SDS011;58152;49.202;18.744;2023-03-01T02:45:30;37.28;;;23.45;;
70588;SDS011;58152;49.202;18.744;2023-03-01T03:01:55;37.55;;;22.60;;
70588;SDS011;58152;49.202;18.744;2023-03-01T03:11:44;41.78;;;22.90;;
70588;SDS011;58152;49.202;18.744;2023-03-01T03:14:16;45.55;;;23.15;;
70588;SDS011;58152;49.202;18.744;2023-03-01T03:16:52;46.30;;;25.60;;
70588;SDS011;58152;49.202;18.744;2023-03-01T03:19:19;44.53;;;23.58;;
70588;SDS011;58152;49.202;18.744;2023-03-01T03:21:47;39.40;;;22.80;;
70588;SDS011;58152;49.202;18.744;2023-03-01T03:24:16;39.60;;;23.48;;
70588;SDS011;58152;49.202;18.744;2023-03-01T03:26:46;45.55;;;24.30;;
70588;SDS011;58152;49.202;18.744;2023-03-01T03:29:14;43.88;;;25.35;;
70588;SDS011;58152;49.202;18.744;2023-03-01T03:31:42;44.80;;;23.58;;
70588;SDS011;58152;49.202;18.744;2023-03-01T03:34:12;44.55;;;25.85;;
70588;SDS011;58152;49.202;18.744;2023-03-01T03:37:03;40.85;;;23.73;;
70588;SDS011;58152;49.202;18.744;2023-03-01T03:39:50;37.08;;;21.73;;
70588;SDS011;58152;49.202;18.744;2023-03-01T03:46:01;40.15;;;24.50;;
70588;SDS011;58152;49.202;18.744;2023-03-01T03:48:33;40.88;;;23.30;;
70588;SDS011;58152;49.202;18.744;2023-03-01T03:51:03;43.45;;;22.75;;
70588;SDS011;58152;49.202;18.744;2023-03-01T03:53:32;42.58;;;24.15;;
70588;SDS011;58152;49.202;18.744;2023-03-01T03:55:58;38.97;;;23.40;;
70588;SDS011;58152;49.202;18.744;2023-03-01T03:58:24;45.58;;;25.30;;
70588;SDS011;58152;49.202;18.744;2023-03-01T04:00:53;41.20;;;23.20;;
70588;SDS011;58152;49.202;18.744;2023-03-01T04:03:22;42.55;;;23.55;;
70588;SDS011;58152;49.202;18.744;2023-03-01T04:05:49;44.53;;;26.30;;
70588;SDS011;58152;49.202;18.744;2023-03-01T04:08:22;42.60;;;24.27;;
70588;SDS011;58152;49.202;18.744;2023-03-01T04:10:59;39.70;;;22.52;;
70588;SDS011;58152;49.202;18.744;2023-03-01T04:13:44;41.42;;;24.23;;
70588;SDS011;58152;49.202;18.744;2023-03-01T04:16:10;39.75;;;23.38;;
70588;SDS011;58152;49.202;18.744;2023-03-01T04:18:36;40.88;;;22.48;;
70588;SDS011;58152;49.202;18.744;2023-03-01T04:21:19;42.03;;;23.30;;
70588;SDS011;58152;49.202;18.744;2023-03-01T04:23:50;39.60;;;24.33;;
70588;SDS011;58152;49.202;18.744;2023-03-01T05:58:10;47.08;;;25.23;;
70588;SDS011;58152;49.202;18.744;2023-03-01T06:00:39;41.90;;;24.45;;
70588;SDS011;58152;49.202;18.744;2023-03-01T06:03:05;42.78;;;23.98;;
70588;SDS011;58152;49.202;18.744;2023-03-01T06:05:30;42.95;;;23.95;;
70588;SDS011;58152;49.202;18.744;2023-03-01T06:07:58;40.80;;;23.63;;
70588;SDS011;58152;49.202;18.744;2023-03-01T06:10:27;45.88;;;23.92;;
70588;SDS011;58152;49.202;18.744;2023-03-01T06:12:52;44.13;;;25.08;;
70588;SDS011;58152;49.202;18.744;2023-03-01T06:15:18;42.35;;;23.92;;
70588;SDS011;58152;49.202;18.744;2023-03-01T06:17:44;37.78;;;22.20;;
70588;SDS011;58152;49.202;18.744;2023-03-01T06:22:46;44.22;;;26.08;;
70588;SDS011;58152;49.202;18.744;2023-03-01T06:25:13;48.03;;;26.23;;
70588;SDS011;58152;49.202;18.744;2023-03-01T06:27:40;41.45;;;24.63;;
70588;SDS011;58152;49.202;18.744;2023-03-01T06:30:07;45.15;;;23.73;;
70588;SDS011;58152;49.202;18.744;2023-03-01T06:32:34;47.13;;;26.15;;
70588;SDS011;58152;49.202;18.744;2023-03-01T06:35:00;43.72;;;24.33;;
70588;SDS011;58152;49.202;18.744;2023-03-01T06:37:25;48.50;;;25.60;;
70588;SDS011;58152;49.202;18.744;2023-03-01T06:39:51;46.22;;;26.30;;
70588;SDS011;58152;49.202;18.744;2023-03-01T06:42:16;49.95;;;26.70;;
70588;SDS011;58152;49.202;18.744;2023-03-01T06:44:43;49.60;;;25.52;;
70588;SDS011;58152;49.202;18.744;2023-03-01T06:47:09;42.75;;;23.67;;
70588;SDS011;58152;49.202;18.744;2023-03-01T06:49:34;45.05;;;25.50;;
70588;SDS011;58152;49.202;18.744;2023-03-01T06:52:00;48.85;;;27.35;;
70588;SDS011;58152;49.202;18.744;2023-03-01T06:54:25;41.90;;;24.88;;
70588;SDS011;58152;49.202;18.744;2023-03-01T06:56:51;40.22;;;22.38;;
70588;SDS011;58152;49.202;18.744;2023-03-01T06:59:16;43.03;;;23.30;;
70588;SDS011;58152;49.202;18.744;2023-03-01T07:01:43;44.95;;;24.33;;
70588;SDS011;58152;49.202;18.744;2023-03-01T07:04:09;44.45;;;24.05;;
70588;SDS011;58152;49.202;18.744;2023-03-01T07:06:35;45.47;;;25.92;;
70588;SDS011;58152;49.202;18.744;2023-03-01T07:09:00;44.47;;;25.63;;
70588;SDS011;58152;49.202;18.744;2023-03-01T07:11:26;43.75;;;24.65;;
70588;SDS011;58152;49.202;18.744;2023-03-01T07:13:53;43.28;;;23.80;;
70588;SDS011;58152;49.202;18.744;2023-03-01T07:16:20;44.78;;;24.85;;
70588;SDS011;58152;49.202;18.744;2023-03-01T07:18:45;48.92;;;25.30;;
70588;SDS011;58152;49.202;18.744;2023-03-01T07:21:12;41.72;;;24.67;;
70588;SDS011;58152;49.202;18.744;2023-03-01T07:23:39;40.88;;;24.27;;
70588;SDS011;58152;49.202;18.744;2023-03-01T07:26:05;45.72;;;26.23;;
70588;SDS011;58152;49.202;18.744;2023-03-01T07:28:30;47.33;;;23.67;;
70588;SDS011;58152;49.202;18.744;2023-03-01T07:31:01;46.08;;;26.73;;
70588;SDS011;58152;49.202;18.744;2023-03-01T07:33:27;44.88;;;25.52;;
70588;SDS011;58152;49.202;18.744;2023-03-01T07:35:59;45.60;;;26.20;;
70588;SDS011;58152;49.202;18.744;2023-03-01T07:38:27;38.53;;;24.00;;
70588;SDS011;58152;49.202;18.744;2023-03-01T07:40:53;41.58;;;24.42;;
70588;SDS011;58152;49.202;18.744;2023-03-01T07:43:22;40.53;;;24.15;;
70588;SDS011;58152;49.202;18.744;2023-03-01T07:45:48;43.70;;;24.77;;
70588;SDS011;58152;49.202;18.744;2023-03-01T07:48:13;44.92;;;25.55;;
70588;SDS011;58152;49.202;18.744;2023-03-01T07:50:39;41.67;;;24.08;;
70588;SDS011;58152;49.202;18.744;2023-03-01T07:53:04;39.80;;;24.17;;
70588;SDS011;58152;49.202;18.744;2023-03-01T07:55:30;43.42;;;24.40;;
70588;SDS011;58152;49.202;18.744;2023-03-01T07:57:55;40.65;;;23.63;;
70588;SDS011;58152;49.202;18.744;2023-03-01T08:00:21;41.15;;;23.73;;
70588;SDS011;58152;49.202;18.744;2023-03-01T08:02:46;33.95;;;20.50;;
70588;SDS011;58152;49.202;18.744;2023-03-01T08:05:12;30.58;;;18.35;;
70588;SDS011;58152;49.202;18.744;2023-03-01T08:07:37;35.22;;;18.20;;
70588;SDS011;58152;49.202;18.744;2023-03-01T08:10:03;35.88;;;21.63;;
70588;SDS011;58152;49.202;18.744;2023-03-01T08:12:28;39.00;;;21.15;;
70588;SDS011;58152;49.202;18.744;2023-03-01T08:14:54;32.58;;;20.17;;
70588;SDS011;58152;49.202;18.744;2023-03-01T08:17:20;33.28;;;20.05;;
70588;SDS011;58152;49.202;18.744;2023-03-01T08:19:45;36.13;;;20.58;;
70588;SDS011;58152;49.202;18.744;2023-03-01T08:22:10;38.78;;;23.02;;
70588;SDS011;58152;49.202;18.744;2023-03-01T08:24:36;36.17;;;21.33;;
70588;SDS011;58152;49.202;18.744;2023-03-01T08:27:01;39.72;;;23.08;;
70588;SDS011;58152;49.202;18.744;2023-03-01T08:29:28;36.38;;;22.60;;
70588;SDS011;58152;49.202;18.744;2023-03-01T08:31:55;35.90;;;21.55;;
70588;SDS011;58152;49.202;18.744;2023-03-01T08:34:21;36.45;;;20.92;;
70588;SDS011;58152;49.202;18.744;2023-03-01T08:36:46;36.30;;;21.25;;
70588;SDS011;58152;49.202;18.744;2023-03-01T08:39:13;35.65;;;20.77;;
70588;SDS011;58152;49.202;18.744;2023-03-01T08:41:41;36.88;;;21.63;;
70588;SDS011;58152;49.202;18.744;2023-03-01T08:44:07;36.03;;;21.15;;
70588;SDS011;58152;49.202;18.744;2023-03-01T08:46:35;40.85;;;22.85;;
70588;SDS011;58152;49.202;18.744;2023-03-01T08:49:09;37.60;;;20.27;;
70588;SDS011;58152;49.202;18.744;2023-03-01T08:51:36;34.78;;;20.05;;
70588;SDS011;58152;49.202;18.744;2023-03-01T08:54:03;36.95;;;20.48;;
70588;SDS011;58152;49.202;18.744;2023-03-01T08:56:29;35.80;;;20.00;;
70588;SDS011;58152;49.202;18.744;2023-03-01T08:58:55;33.65;;;19.13;;
70588;SDS011;58152;49.202;18.744;2023-03-01T09:01:20;29.85;;;18.98;;
70588;SDS011;58152;49.202;18.744;2023-03-01T09:03:46;34.85;;;20.48;;
70588;SDS011;58152;49.202;18.744;2023-03-01T09:06:11;39.35;;;22.30;;
70588;SDS011;58152;49.202;18.744;2023-03-01T09:08:39;31.23;;;18.58;;
70588;SDS011;58152;49.202;18.744;2023-03-01T09:11:07;37.80;;;20.05;;
70588;SDS011;58152;49.202;18.744;2023-03-01T09:13:33;34.55;;;18.50;;
70588;SDS011;58152;49.202;18.744;2023-03-01T09:16:00;35.50;;;19.67;;
70588;SDS011;58152;49.202;18.744;2023-03-01T09:18:27;34.40;;;19.75;;
70588;SDS011;58152;49.202;18.744;2023-03-01T09:20:52;35.58;;;20.05;;
70588;SDS011;58152;49.202;18.744;2023-03-01T09:23:20;37.17;;;21.52;;
70588;SDS011;58152;49.202;18.744;2023-03-01T09:25:49;39.13;;;21.77;;
70588;SDS011;58152;49.202;18.744;2023-03-01T09:28:14;35.00;;;19.45;;
70588;SDS011;58152;49.202;18.744;2023-03-01T09:30:39;32.15;;;18.38;;
70588;SDS011;58152;49.202;18.744;2023-03-01T09:33:05;33.75;;;20.02;;
70588;SDS011;58152;49.202;18.744;2023-03-01T09:35:30;29.95;;;18.48;;
70588;SDS011;58152;49.202;18.744;2023-03-01T09:37:55;31.30;;;18.08;;
70588;SDS011;58152;49.202;18.744;2023-03-01T09:40:21;29.48;;;18.60;;
70588;SDS011;58152;49.202;18.744;2023-03-01T09:45:34;28.55;;;17.10;;
70588;SDS011;58152;49.202;18.744;2023-03-01T09:48:03;27.58;;;17.95;;
70588;SDS011;58152;49.202;18.744;2023-03-01T09:50:35;26.83;;;17.65;;
70588;SDS011;58152;49.202;18.744;2023-03-01T09:53:05;34.00;;;17.80;;
70588;SDS011;58152;49.202;18.744;2023-03-01T10:09:52;23.50;;;15.93;;
70588;SDS011;58152;49.202;18.744;2023-03-01T10:12:22;34.20;;;19.30;;
70588;SDS011;58152;49.202;18.744;2023-03-01T10:14:56;35.75;;;20.58;;
70588;SDS011;58152;49.202;18.744;2023-03-01T10:17:33;34.55;;;19.48;;
70588;SDS011;58152;49.202;18.744;2023-03-01T10:22:46;26.13;;;17.00;;
70588;SDS011;58152;49.202;18.744;2023-03-01T10:25:15;26.90;;;16.25;;
70588;SDS011;58152;49.202;18.744;2023-03-01T10:27:54;25.98;;;16.45;;
70588;SDS011;58152;49.202;18.744;2023-03-01T10:32:58;26.17;;;16.67;;
70588;SDS011;58152;49.202;18.744;2023-03-01T10:35:25;27.63;;;16.17;;
70588;SDS011;58152;49.202;18.744;2023-03-01T10:38:06;23.65;;;15.07;;
70588;SDS011;58152;49.202;18.744;2023-03-01T10:40:36;24.45;;;16.17;;
70588;SDS011;58152;49.202;18.744;2023-03-01T10:43:16;25.58;;;15.48;;
70588;SDS011;58152;49.202;18.744;2023-03-01T10:45:42;20.35;;;13.95;;
70588;SDS011;58152;49.202;18.744;2023-03-01T10:50:33;22.80;;;15.77;;
70588;SDS011;58152;49.202;18.744;2023-03-01T10:53:00;22.90;;;15.75;;
70588;SDS011;58152;49.202;18.744;2023-03-01T10:55:36;22.35;;;14.80;;
70588;SDS011;58152;49.202;18.744;2023-03-01T11:00:32;21.75;;;14.48;;
70588;SDS011;58152;49.202;18.744;2023-03-01T11:05:23;21.33;;;13.35;;
70588;SDS011;58152;49.202;18.744;2023-03-01T11:07:54;20.95;;;13.52;;
70588;SDS011;58152;49.202;18.744;2023-03-01T11:10:34;21.48;;;14.93;;
70588;SDS011;58152;49.202;18.744;2023-03-01T11:13:08;27.10;;;16.02;;
70588;SDS011;58152;49.202;18.744;2023-03-01T11:15:40;24.48;;;15.32;;
70588;SDS011;58152;49.202;18.744;2023-03-01T11:18:18;24.50;;;14.75;;
70588;SDS011;58152;49.202;18.744;2023-03-01T11:20:45;22.08;;;15.25;;
70588;SDS011;58152;49.202;18.744;2023-03-01T11:23:12;21.60;;;14.63;;
70588;SDS011;58152;49.202;18.744;2023-03-01T11:25:40;24.60;;;14.90;;
70588;SDS011;58152;49.202;18.744;2023-03-01T11:28:10;19.15;;;14.30;;
70588;SDS011;58152;49.202;18.744;2023-03-01T11:30:50;22.52;;;15.07;;
70588;SDS011;58152;49.202;18.744;2023-03-01T11:41:54;21.98;;;15.20;;
70588;SDS011;58152;49.202;18.744;2023-03-01T11:44:29;19.77;;;13.57;;
70588;SDS011;58152;49.202;18.744;2023-03-01T12:03:39;22.35;;;14.05;;
70588;SDS011;58152;49.202;18.744;2023-03-01T12:08:57;21.27;;;14.18;;
70588;SDS011;58152;49.202;18.744;2023-03-01T12:14:19;18.40;;;12.95;;
70588;SDS011;58152;49.202;18.744;2023-03-01T12:29:45;12.20;;;9.70;;
70588;SDS011;58152;49.202;18.744;2023-03-01T12:35:26;15.75;;;10.35;;
70588;SDS011;58152;49.202;18.744;2023-03-01T12:46:56;8.88;;;6.25;;
70588;SDS011;58152;49.202;18.744;2023-03-01T12:52:21;9.43;;;6.65;;
70588;SDS011;58152;49.202;18.744;2023-03-01T12:54:51;9.52;;;6.78;;
70588;SDS011;58152;49.202;18.744;2023-03-01T12:57:30;9.45;;;7.45;;
70588;SDS011;58152;49.202;18.744;2023-03-01T13:00:11;9.65;;;6.53;;
70588;SDS011;58152;49.202;18.744;2023-03-01T13:02:57;10.77;;;7.03;;
70588;SDS011;58152;49.202;18.744;2023-03-01T13:08:35;8.43;;;5.65;;
70588;SDS011;58152;49.202;18.744;2023-03-01T13:11:11;7.85;;;6.40;;
70588;SDS011;58152;49.202;18.744;2023-03-01T13:13:43;8.98;;;6.28;;
70588;SDS011;58152;49.202;18.744;2023-03-01T13:19:16;9.68;;;7.22;;
70588;SDS011;58152;49.202;18.744;2023-03-01T13:21:48;8.45;;;5.95;;
70588;SDS011;58152;49.202;18.744;2023-03-01T13:32:20;8.18;;;5.45;;
70588;SDS011;58152;49.202;18.744;2023-03-01T13:37:43;6.80;;;5.03;;
70588;SDS011;58152;49.202;18.744;2023-03-01T13:43:01;4.70;;;3.30;;
70588;SDS011;58152;49.202;18.744;2023-03-01T13:45:58;4.68;;;3.50;;
70588;SDS011;58152;49.202;18.744;2023-03-01T13:48:25;4.13;;;3.40;;
70588;SDS011;58152;49.202;18.744;2023-03-01T13:51:01;4.70;;;3.28;;
70588;SDS011;58152;49.202;18.744;2023-03-01T13:53:31;4.25;;;3.20;;
70588;SDS011;58152;49.202;18.744;2023-03-01T13:56:11;5.90;;;4.35;;
70588;SDS011;58152;49.202;18.744;2023-03-01T13:58:57;4.90;;;4.00;;
70588;SDS011;58152;49.202;18.744;2023-03-01T14:01:44;4.72;;;4.20;;
70588;SDS011;58152;49.202;18.744;2023-03-01T14:04:21;6.93;;;5.20;;
70588;SDS011;58152;49.202;18.744;2023-03-01T14:06:49;5.70;;;4.32;;
70588;SDS011;58152;49.202;18.744;2023-03-01T14:09:24;5.53;;;4.70;;
70588;SDS011;58152;49.202;18.744;2023-03-01T14:12:06;5.97;;;4.75;;
70588;SDS011;58152;49.202;18.744;2023-03-01T14:14:42;7.28;;;4.40;;
70588;SDS011;58152;49.202;18.744;2023-03-01T14:20:01;8.25;;;5.70;;
70588;SDS011;58152;49.202;18.744;2023-03-01T14:22:34;7.50;;;5.87;;
70588;SDS011;58152;49.202;18.744;2023-03-01T14:25:02;6.65;;;5.50;;
70588;SDS011;58152;49.202;18.744;2023-03-01T14:27:38;8.02;;;6.18;;
70588;SDS011;58152;49.202;18.744;2023-03-01T14:30:14;8.25;;;6.25;;
70588;SDS011;58152;49.202;18.744;2023-03-01T14:32:52;10.40;;;7.40;;
70588;SDS011;58152;49.202;18.744;2023-03-01T14:35:20;11.15;;;6.97;;
70588;SDS011;58152;49.202;18.744;2023-03-01T14:38:04;10.45;;;7.43;;
70588;SDS011;58152;49.202;18.744;2023-03-01T14:40:31;11.85;;;8.00;;
70588;SDS011;58152;49.202;18.744;2023-03-01T14:42:58;11.45;;;8.00;;
70588;SDS011;58152;49.202;18.744;2023-03-01T14:45:29;11.20;;;8.40;;
70588;SDS011;58152;49.202;18.744;2023-03-01T14:47:58;10.60;;;8.38;;
70588;SDS011;58152;49.202;18.744;2023-03-01T14:50:26;13.18;;;9.45;;
70588;SDS011;58152;49.202;18.744;2023-03-01T14:52:55;14.02;;;9.10;;
70588;SDS011;58152;49.202;18.744;2023-03-01T14:57:54;12.95;;;9.45;;
70588;SDS011;58152;49.202;18.744;2023-03-01T15:00:23;13.32;;;9.63;;
70588;SDS011;58152;49.202;18.744;2023-03-01T15:02:52;11.32;;;8.50;;
70588;SDS011;58152;49.202;18.744;2023-03-01T15:05:27;13.82;;;9.70;;
70588;SDS011;58152;49.202;18.744;2023-03-01T15:07:56;14.65;;;10.35;;
70588;SDS011;58152;49.202;18.744;2023-03-01T15:10:24;17.58;;;9.80;;
70588;SDS011;58152;49.202;18.744;2023-03-01T15:12:52;16.48;;;10.65;;
70588;SDS011;58152;49.202;18.744;2023-03-01T15:18:16;20.13;;;12.02;;
70588;SDS011;58152;49.202;18.744;2023-03-01T15:20:45;17.63;;;12.20;;
70588;SDS011;58152;49.202;18.744;2023-03-01T15:23:22;17.63;;;13.43;;
70588;SDS011;58152;49.202;18.744;2023-03-01T15:25:48;18.50;;;12.75;;
70588;SDS011;58152;49.202;18.744;2023-03-01T15:28:21;18.23;;;12.88;;
70588;SDS011;58152;49.202;18.744;2023-03-01T15:30:53;19.10;;;13.25;;
70588;SDS011;58152;49.202;18.744;2023-03-01T15:35:58;19.25;;;13.02;;
70588;SDS011;58152;49.202;18.744;2023-03-01T15:38:50;21.38;;;14.40;;
70588;SDS011;58152;49.202;18.744;2023-03-01T15:41:30;19.77;;;14.20;;
70588;SDS011;58152;49.202;18.744;2023-03-01T15:43:58;19.05;;;14.00;;
70588;SDS011;58152;49.202;18.744;2023-03-01T15:46:29;19.42;;;13.75;;
70588;SDS011;58152;49.202;18.744;2023-03-01T15:49:03;19.60;;;14.30;;
70588;SDS011;58152;49.202;18.744;2023-03-01T15:51:43;20.67;;;13.95;;
70588;SDS011;58152;49.202;18.744;2023-03-01T15:54:16;20.73;;;14.55;;
70588;SDS011;58152;49.202;18.744;2023-03-01T15:56:45;22.70;;;14.73;;
70588;SDS011;58152;49.202;18.744;2023-03-01T15:59:11;22.83;;;14.95;;
70588;SDS011;58152;49.202;18.744;2023-03-01T16:01:41;20.05;;;14.98;;
70588;SDS011;58152;49.202;18.744;2023-03-01T16:04:08;20.90;;;15.85;;
70588;SDS011;58152;49.202;18.744;2023-03-01T16:06:36;24.45;;;16.65;;
70588;SDS011;58152;49.202;18.744;2023-03-01T16:09:04;23.08;;;15.30;;
70588;SDS011;58152;49.202;18.744;2023-03-01T16:11:29;21.77;;;15.00;;
70588;SDS011;58152;49.202;18.744;2023-03-01T16:13:56;21.17;;;15.52;;
70588;SDS011;58152;49.202;18.744;2023-03-01T16:16:21;21.60;;;15.50;;
70588;SDS011;58152;49.202;18.744;2023-03-01T16:18:47;24.05;;;16.55;;
70588;SDS011;58152;49.202;18.744;2023-03-01T16:21:19;21.58;;;15.95;;
70588;SDS011;58152;49.202;18.744;2023-03-01T16:23:46;23.90;;;15.73;;
70588;SDS011;58152;49.202;18.744;2023-03-01T16:26:12;23.77;;;16.42;;
70588;SDS011;58152;49.202;18.744;2023-03-01T16:28:38;25.70;;;17.92;;
70588;SDS011;58152;49.202;18.744;2023-03-01T16:31:04;23.25;;;16.10;;
70588;SDS011;58152;49.202;18.744;2023-03-01T16:33:30;25.27;;;18.52;;
70588;SDS011;58152;49.202;18.744;2023-03-01T16:35:56;24.52;;;18.05;;
70588;SDS011;58152;49.202;18.744;2023-03-01T16:38:21;26.17;;;18.48;;
70588;SDS011;58152;49.202;18.744;2023-03-01T16:40:48;27.00;;;18.25;;
70588;SDS011;58152;49.202;18.744;2023-03-01T16:43:15;25.00;;;17.40;;
70588;SDS011;58152;49.202;18.744;2023-03-01T16:45:40;21.90;;;16.65;;
70588;SDS011;58152;49.202;18.744;2023-03-01T16:48:09;24.13;;;16.80;;
70588;SDS011;58152;49.202;18.744;2023-03-01T16:50:35;26.73;;;17.98;;
70588;SDS011;58152;49.202;18.744;2023-03-01T16:53:01;24.00;;;17.38;;
70588;SDS011;58152;49.202;18.744;2023-03-01T16:55:27;23.77;;;16.85;;
70588;SDS011;58152;49.202;18.744;2023-03-01T16:57:53;23.20;;;15.82;;
70588;SDS011;58152;49.202;18.744;2023-03-01T17:00:18;23.75;;;16.60;;
70588;SDS011;58152;49.202;18.744;2023-03-01T17:02:44;26.27;;;17.30;;
70588;SDS011;58152;49.202;18.744;2023-03-01T17:05:09;23.45;;;16.67;;
70588;SDS011;58152;49.202;18.744;2023-03-01T17:07:38;24.40;;;16.73;;
70588;SDS011;58152;49.202;18.744;2023-03-01T17:10:05;27.10;;;17.70;;
70588;SDS011;58152;49.202;18.744;2023-03-01T17:12:35;23.65;;;16.73;;
70588;SDS011;58152;49.202;18.744;2023-03-01T17:15:01;24.23;;;17.88;;
70588;SDS011;58152;49.202;18.744;2023-03-01T17:17:27;23.33;;;16.38;;
70588;SDS011;58152;49.202;18.744;2023-03-01T17:19:52;23.90;;;15.95;;
70588;SDS011;58152;49.202;18.744;2023-03-01T17:22:18;26.45;;;16.58;;
70588;SDS011;58152;49.202;18.744;2023-03-01T17:24:43;22.55;;;16.40;;
70588;SDS011;58152;49.202;18.744;2023-03-01T17:27:10;27.23;;;18.38;;
70588;SDS011;58152;49.202;18.744;2023-03-01T17:29:37;25.15;;;16.80;;
70588;SDS011;58152;49.202;18.744;2023-03-01T17:32:03;22.67;;;16.02;;
70588;SDS011;58152;49.202;18.744;2023-03-01T17:34:30;26.55;;;17.48;;
70588;SDS011;58152;49.202;18.744;2023-03-01T17:36:56;22.40;;;15.10;;
70588;SDS011;58152;49.202;18.744;2023-03-01T17:39:25;24.73;;;16.15;;
70588;SDS011;58152;49.202;18.744;2023-03-01T17:41:54;22.95;;;16.38;;
70588;SDS011;58152;49.202;18.744;2023-03-01T17:44:21;24.95;;;16.48;;
70588;SDS011;58152;49.202;18.744;2023-03-01T17:46:46;27.25;;;17.23;;
70588;SDS011;58152;49.202;18.744;2023-03-01T17:49:12;25.23;;;17.42;;
70588;SDS011;58152;49.202;18.744;2023-03-01T17:51:43;24.00;;;16.90;;
70588;SDS011;58152;49.202;18.744;2023-03-01T17:54:09;25.17;;;17.42;;
70588;SDS011;58152;49.202;18.744;2023-03-01T17:56:34;26.33;;;17.35;;
70588;SDS011;58152;49.202;18.744;2023-03-01T17:59:02;25.17;;;17.02;;
70588;SDS011;58152;49.202;18.744;2023-03-01T18:01:28;25.98;;;17.10;;
70588;SDS011;58152;49.202;18.744;2023-03-01T18:03:54;22.65;;;16.23;;
70588;SDS011;58152;49.202;18.744;2023-03-01T18:06:20;25.63;;;16.95;;
70588;SDS011;58152;49.202;18.744;2023-03-01T18:08:51;23.75;;;17.50;;
70588;SDS011;58152;49.202;18.744;2023-03-01T18:11:19;25.67;;;17.52;;
70588;SDS011;58152;49.202;18.744;2023-03-01T18:13:51;28.15;;;17.88;;
70588;SDS011;58152;49.202;18.744;2023-03-01T18:16:18;28.17;;;18.08;;
70588;SDS011;58152;49.202;18.744;2023-03-01T18:18:45;29.23;;;19.60;;
70588;SDS011;58152;49.202;18.744;2023-03-01T18:21:12;25.77;;;17.60;;
70588;SDS011;58152;49.202;18.744;2023-03-01T18:23:38;25.10;;;16.90;;
70588;SDS011;58152;49.202;18.744;2023-03-01T18:26:08;26.27;;;19.05;;
70588;SDS011;58152;49.202;18.744;2023-03-01T18:28:43;28.50;;;19.15;;
70588;SDS011;58152;49.202;18.744;2023-03-01T18:31:12;29.23;;;18.85;;
70588;SDS011;58152;49.202;18.744;2023-03-01T18:33:42;30.17;;;20.33;;
70588;SDS011;58152;49.202;18.744;2023-03-01T18:36:15;27.17;;;18.50;;
70588;SDS011;58152;49.202;18.744;2023-03-01T18:38:43;29.20;;;18.73;;
70588;SDS011;58152;49.202;18.744;2023-03-01T18:41:09;28.73;;;20.23;;
70588;SDS011;58152;49.202;18.744;2023-03-01T18:43:35;26.75;;;18.83;;
70588;SDS011;58152;49.202;18.744;2023-03-01T18:46:00;26.58;;;18.42;;
70588;SDS011;58152;49.202;18.744;2023-03-01T18:48:29;29.17;;;18.70;;
70588;SDS011;58152;49.202;18.744;2023-03-01T18:50:55;25.65;;;18.73;;
70588;SDS011;58152;49.202;18.744;2023-03-01T18:53:21;28.45;;;19.23;;
70588;SDS011;58152;49.202;18.744;2023-03-01T18:55:46;27.02;;;18.88;;
70588;SDS011;58152;49.202;18.744;2023-03-01T18:58:11;24.83;;;18.80;;
70588;SDS011;58152;49.202;18.744;2023-03-01T19:00:37;29.58;;;18.35;;
70588;SDS011;58152;49.202;18.744;2023-03-01T19:03:03;27.55;;;18.17;;